Time;durP1;ratioP1;P1;durP2;ratioP2;P2;SDS_P1;SDS_P2;PMS_P1;PMS_P2;Temp;Humidity;BMP_temperature;BMP_pressure;BME280_temperature;BME280_humidity;BME280_pressure;Samples;Min_cycle;Max_cycle;Signal;HPM_P1;HPM_P2
2023/12/21 00:01:36;;;;;;;;;;;;;;;6.17;66.92;99663.44;4468327;32;35027;-73
2023/12/21 00:04:03;;;;;;;;;;;;;;;6.23;66.82;99663.81;4468438;32;33976;-70
2023/12/21 00:06:49;;;;;;;;;;;;;;;6.19;65.63;99667.00;4469090;32;33768;-72
2023/12/21 00:09:18;;;;;;;;;;;;;;;6.32;64.95;99654.06;4468175;32;34239;-78
2023/12/21 00:11:46;;;;;;;;;;;;;;;6.36;64.40;99656.03;4455320;32;34434;-75
2023/12/21 00:14:13;;;;;;;;;;;;;;;6.30;64.37;99661.69;4468847;32;34830;-77
2023/12/21 00:16:40;;;;;;;;;;;;;;;6.21;64.66;99645.72;4469464;32;33985;-72
2023/12/21 00:19:08;;;;;;;;;;;;;;;6.35;64.49;99643.94;4468858;32;34180;-76
2023/12/21 00:21:35;;;;;;;;;;;;;;;6.35;64.01;99648.22;4467861;32;34261;-74
2023/12/21 00:24:02;;;;;;;;;;;;;;;6.39;64.35;99635.59;4453692;32;32026;-70
2023/12/21 00:26:30;;;;;;;;;;;;;;;6.42;64.13;99635.78;4468129;32;33001;-72
2023/12/21 00:28:57;;;;;;;;;;;;;;;6.37;64.52;99642.34;4468517;32;33837;-70
2023/12/21 00:31:25;;;;;;;;;;;;;;;6.42;64.55;99638.38;4468276;32;34731;-71
2023/12/21 00:33:52;;;;;;;;;;;;;;;6.54;64.34;99638.19;4468002;32;34889;-75
2023/12/21 00:36:20;;;;;;;;;;;;;;;6.56;64.23;99633.16;4446005;32;31299;-75
2023/12/21 00:38:47;;;;;;;;;;;;;;;6.65;63.97;99634.56;4466933;32;34603;-71
2023/12/21 00:41:14;;;;;;;;;;;;;;;6.69;63.84;99635.63;4466814;32;34142;-71
2023/12/21 00:43:42;;;;;;;;;;;;;;;6.81;63.63;99625.13;4467349;32;34540;-75
2023/12/21 00:46:09;;;;;;;;;;;;;;;6.93;63.34;99627.50;4468127;32;33440;-71
2023/12/21 00:48:36;;;;;;;;;;;;;;;6.83;63.27;99626.09;4467479;32;34869;-75
2023/12/21 00:51:05;;;;;;;;;;;;;;;7.08;62.36;99620.66;4469490;32;32989;-72
2023/12/21 00:53:33;;;;;;;;;;;;;;;7.03;62.42;99606.63;4455536;32;34010;-74
2023/12/21 00:56:00;;;;;;;;;;;;;;;7.21;61.13;99597.34;4465675;32;34025;-75
2023/12/21 00:58:27;;;;;;;;;;;;;;;7.05;61.58;99599.84;4467081;32;32691;-74
2023/12/21 01:00:55;;;;;;;;;;;;;;;7.21;61.00;99596.47;4464378;32;33579;-71
2023/12/21 01:03:23;;;;;;;;;;;;;;;7.28;60.59;99599.47;4467645;32;34336;-73
2023/12/21 01:05:50;;;;;;;;;;;;;;;7.27;60.04;99607.97;4469612;32;33172;-71
2023/12/21 01:08:18;;;;;;;;;;;;;;;7.04;60.53;99608.41;4468084;32;35003;-74
2023/12/21 01:10:45;;;;;;;;;;;;;;;6.88;60.67;99610.13;4467549;32;35002;-74
2023/12/21 01:13:12;;;;;;;;;;;;;;;7.17;59.07;99602.25;4467919;32;34012;-71
2023/12/21 01:15:41;;;;;;;;;;;;;;;7.27;58.77;99602.81;4467921;32;33796;-74
2023/12/21 01:18:08;;;;;;;;;;;;;;;6.99;59.23;99602.09;4467251;32;34850;-72
2023/12/21 01:20:35;;;;;;;;;;;;;;;7.16;59.09;99601.34;4467048;32;35208;-72
2023/12/21 01:23:03;;;;;;;;;;;;;;;7.31;58.50;99587.53;4468665;32;33874;-73
2023/12/21 01:25:30;;;;;;;;;;;;;;;7.43;57.90;99590.78;4467958;32;33764;-74
2023/12/21 01:27:57;;;;;;;;;;;;;;;7.28;58.11;99589.16;4466730;32;34845;-75
2023/12/21 01:30:25;;;;;;;;;;;;;;;7.37;58.07;99590.44;4468015;32;33397;-73
2023/12/21 01:32:53;;;;;;;;;;;;;;;7.31;58.28;99582.37;4467387;32;34709;-75
2023/12/21 01:35:20;;;;;;;;;;;;;;;7.42;57.64;99576.13;4450386;32;32875;-75
2023/12/21 01:37:48;;;;;;;;;;;;;;;7.33;57.76;99570.47;4467810;32;34019;-73
2023/12/21 01:40:16;;;;;;;;;;;;;;;7.40;57.53;99575.16;4467769;32;34076;-74
2023/12/21 01:42:44;;;;;;;;;;;;;;;7.26;58.01;99559.84;4467911;32;34638;-74
2023/12/21 01:45:12;;;;;;;;;;;;;;;7.11;58.63;99559.00;4453095;32;33854;-71
2023/12/21 01:47:39;;;;;;;;;;;;;;;7.16;58.61;99552.41;4467259;32;33830;-76
2023/12/21 01:50:07;;;;;;;;;;;;;;;7.24;58.42;99555.38;4453798;32;34226;-72
2023/12/21 01:52:34;;;;;;;;;;;;;;;7.29;58.51;99552.25;4453466;32;34953;-74
2023/12/21 01:55:02;;;;;;;;;;;;;;;7.17;58.70;99549.03;4462012;32;33265;-74
2023/12/21 01:57:29;;;;;;;;;;;;;;;7.31;58.56;99552.34;4467309;32;33873;-72
2023/12/21 01:59:57;;;;;;;;;;;;;;;7.25;58.83;99541.72;4440243;32;32404;-76
2023/12/21 02:02:24;;;;;;;;;;;;;;;7.43;58.25;99545.25;4467163;32;33729;-73
2023/12/21 02:04:52;;;;;;;;;;;;;;;7.39;58.21;99539.88;4440064;32;32729;-73
2023/12/21 02:07:19;;;;;;;;;;;;;;;7.34;58.28;99537.06;4467110;32;34605;-71
2023/12/21 02:09:46;;;;;;;;;;;;;;;7.44;58.13;99533.28;4467624;32;34118;-72
2023/12/21 02:12:14;;;;;;;;;;;;;;;7.42;58.18;99534.91;4454993;32;32835;-72
2023/12/21 02:14:41;;;;;;;;;;;;;;;7.43;58.22;99521.19;4470091;32;33591;-74
2023/12/21 02:17:15;;;;;;;;;;;;;;;7.55;58.04;99524.44;4469335;32;33752;-72
2023/12/21 02:20:01;;;;;;;;;;;;;;;7.70;57.34;99526.03;4456120;32;34217;-73
2023/12/21 02:22:29;;;;;;;;;;;;;;;7.68;57.43;99525.94;4467645;32;33910;-75
2023/12/21 02:24:56;;;;;;;;;;;;;;;7.74;56.96;99517.62;4456180;32;33517;-72
2023/12/21 02:27:24;;;;;;;;;;;;;;;8.00;55.83;99514.69;4469116;32;34335;-73
2023/12/21 02:29:51;;;;;;;;;;;;;;;7.79;56.30;99511.03;4469887;32;34358;-73
2023/12/21 02:32:18;;;;;;;;;;;;;;;7.90;55.94;99509.88;4469400;32;34736;-75
2023/12/21 02:34:46;;;;;;;;;;;;;;;7.87;55.98;99504.56;4455501;32;33471;-73
2023/12/21 02:37:13;;;;;;;;;;;;;;;7.91;55.83;99501.31;4469597;32;34158;-76
2023/12/21 02:39:40;;;;;;;;;;;;;;;7.87;55.67;99500.28;4469629;32;34193;-75
2023/12/21 02:42:07;;;;;;;;;;;;;;;7.84;55.83;99501.81;4468628;32;34145;-73
2023/12/21 02:44:35;;;;;;;;;;;;;;;7.82;55.88;99503.44;4468562;32;32843;-73
2023/12/21 02:47:03;;;;;;;;;;;;;;;7.89;55.68;99502.94;4468642;32;33853;-75
2023/12/21 02:49:30;;;;;;;;;;;;;;;7.82;55.83;99506.00;4469289;32;33745;-74
2023/12/21 02:51:57;;;;;;;;;;;;;;;7.92;55.56;99497.03;4468934;32;34827;-76
2023/12/21 02:54:26;;;;;;;;;;;;;;;7.87;55.57;99501.97;4469243;32;33559;-71
2023/12/21 02:56:53;;;;;;;;;;;;;;;7.89;55.66;99497.78;4451399;32;34244;-74
2023/12/21 02:59:20;;;;;;;;;;;;;;;7.79;55.82;99491.28;4469429;32;34168;-74
2023/12/21 03:01:48;;;;;;;;;;;;;;;7.82;55.56;99486.28;4467905;32;34125;-76
2023/12/21 03:04:15;;;;;;;;;;;;;;;8.07;54.93;99490.06;4469160;32;33102;-75
2023/12/21 03:06:43;;;;;;;;;;;;;;;8.18;54.53;99491.50;4468990;32;34019;-77
2023/12/21 03:09:10;;;;;;;;;;;;;;;7.95;54.97;99498.09;4448342;32;32496;-74
2023/12/21 03:11:38;;;;;;;;;;;;;;;8.03;54.70;99496.78;4466995;32;34439;-74
2023/12/21 03:14:05;;;;;;;;;;;;;;;8.17;54.09;99488.81;4468806;32;33967;-72
2023/12/21 03:16:33;;;;;;;;;;;;;;;7.97;54.67;99490.44;4469068;32;34070;-75
2023/12/21 03:19:01;;;;;;;;;;;;;;;7.96;54.67;99488.66;4469057;32;34661;-77
2023/12/21 03:21:28;;;;;;;;;;;;;;;7.78;55.02;99486.03;4469308;32;34341;-74
2023/12/21 03:23:56;;;;;;;;;;;;;;;7.80;55.15;99482.75;4469032;32;33237;-76
2023/12/21 03:26:24;;;;;;;;;;;;;;;7.60;55.81;99479.12;4468451;32;33909;-75
2023/12/21 03:28:51;;;;;;;;;;;;;;;7.66;55.62;99484.59;4468965;32;34351;-73
2023/12/21 03:31:18;;;;;;;;;;;;;;;7.80;55.12;99476.69;4469077;32;34243;-73
2023/12/21 03:33:46;;;;;;;;;;;;;;;7.71;55.71;99481.38;4468726;32;33331;-72
2023/12/21 03:36:13;;;;;;;;;;;;;;;7.54;56.16;99486.56;4467928;32;34118;-73
2023/12/21 03:38:41;;;;;;;;;;;;;;;7.83;55.60;99487.16;4468211;32;35003;-72
2023/12/21 03:41:08;;;;;;;;;;;;;;;7.88;55.38;99480.56;4467269;32;34297;-74
2023/12/21 03:43:36;;;;;;;;;;;;;;;7.62;56.03;99497.28;4448878;32;32751;-76
2023/12/21 03:46:07;;;;;;;;;;;;;;;7.61;56.17;99491.22;4466864;32;33929;-76
2023/12/21 03:48:35;;;;;;;;;;;;;;;7.61;56.21;99490.31;4467994;32;34229;-74
2023/12/21 03:51:03;;;;;;;;;;;;;;;7.57;56.21;99480.66;4445704;32;34199;-76
2023/12/21 03:53:30;;;;;;;;;;;;;;;7.59;56.24;99472.22;4469419;32;33365;-77
2023/12/21 03:55:58;;;;;;;;;;;;;;;7.41;56.84;99476.41;4468203;32;34014;-76
2023/12/21 03:58:25;;;;;;;;;;;;;;;7.44;56.84;99466.28;4468254;32;35078;-72
2023/12/21 04:00:52;;;;;;;;;;;;;;;7.39;56.93;99458.28;4468587;32;34272;-76
2023/12/21 04:03:20;;;;;;;;;;;;;;;7.41;56.89;99460.97;4454151;32;33276;-75
2023/12/21 04:05:47;;;;;;;;;;;;;;;7.48;56.88;99456.19;4468858;32;34915;-76
2023/12/21 04:08:15;;;;;;;;;;;;;;;7.46;56.90;99450.09;4468437;32;34163;-75
2023/12/21 04:10:42;;;;;;;;;;;;;;;7.48;56.78;99443.31;4468724;32;34781;-72
2023/12/21 04:13:10;;;;;;;;;;;;;;;7.44;56.94;99445.66;4453121;32;33070;-74
2023/12/21 04:15:37;;;;;;;;;;;;;;;7.46;57.03;99446.63;4468167;32;34006;-72
2023/12/21 04:18:04;;;;;;;;;;;;;;;7.49;56.99;99439.03;4468387;32;34178;-74
2023/12/21 04:20:32;;;;;;;;;;;;;;;7.50;56.81;99438.25;4467806;32;34211;-75
2023/12/21 04:22:59;;;;;;;;;;;;;;;7.50;56.82;99440.81;4468502;32;33927;-75
2023/12/21 04:25:26;;;;;;;;;;;;;;;7.73;56.17;99435.97;4467392;32;34063;-72
2023/12/21 04:27:54;;;;;;;;;;;;;;;7.50;56.70;99433.09;4437885;32;35129;-73
2023/12/21 04:30:21;;;;;;;;;;;;;;;7.68;56.13;99436.59;4467214;32;34743;-76
2023/12/21 04:32:48;;;;;;;;;;;;;;;7.46;56.42;99436.31;4467043;32;34024;-74
2023/12/21 04:35:16;;;;;;;;;;;;;;;7.29;57.02;99425.16;4468898;32;34212;-75
2023/12/21 04:37:43;;;;;;;;;;;;;;;6.50;59.31;99420.09;4468450;32;34167;-76
2023/12/21 04:40:11;;;;;;;;;;;;;;;6.78;58.92;99424.16;4468541;32;34360;-72
2023/12/21 04:42:38;;;;;;;;;;;;;;;6.71;58.94;99417.81;4468445;32;33445;-76
2023/12/21 04:45:06;;;;;;;;;;;;;;;6.79;58.93;99416.53;4464984;32;34823;-77
2023/12/21 04:47:33;;;;;;;;;;;;;;;7.11;58.24;99416.44;4468197;32;34009;-75
2023/12/21 04:50:00;;;;;;;;;;;;;;;7.00;58.53;99414.19;4467848;32;34386;-74
2023/12/21 04:52:28;;;;;;;;;;;;;;;7.16;57.78;99408.16;4468472;32;33591;-75
2023/12/21 04:54:55;;;;;;;;;;;;;;;6.93;58.54;99403.50;4470354;32;34353;-73
2023/12/21 04:57:23;;;;;;;;;;;;;;;6.98;58.62;99396.91;4474210;32;34975;-77
2023/12/21 04:59:50;;;;;;;;;;;;;;;6.54;59.38;99395.44;4467038;32;34204;-76
2023/12/21 05:02:18;;;;;;;;;;;;;;;6.91;58.31;99384.50;4467732;32;33276;-74
2023/12/21 05:04:45;;;;;;;;;;;;;;;6.79;58.42;99385.63;4468193;32;34221;-76
2023/12/21 05:07:12;;;;;;;;;;;;;;;6.80;58.74;99387.41;4466201;32;34720;-74
2023/12/21 05:09:40;;;;;;;;;;;;;;;6.71;58.86;99376.63;4468256;32;33909;-75
2023/12/21 05:12:07;;;;;;;;;;;;;;;6.71;59.20;99379.19;4468286;32;33545;-73
2023/12/21 05:14:34;;;;;;;;;;;;;;;6.87;58.59;99376.63;4468407;32;33825;-76
2023/12/21 05:17:02;;;;;;;;;;;;;;;6.60;59.16;99375.16;4467454;32;34195;-74
2023/12/21 05:19:31;;;;;;;;;;;;;;;6.81;58.61;99363.44;4468568;32;33825;-73
2023/12/21 05:21:58;;;;;;;;;;;;;;;6.88;57.94;99362.94;4468668;32;33166;-74
2023/12/21 05:24:26;;;;;;;;;;;;;;;6.72;58.44;99362.06;4468253;32;34187;-72
2023/12/21 05:26:53;;;;;;;;;;;;;;;6.71;58.56;99360.31;4468210;32;34202;-76
2023/12/21 05:29:20;;;;;;;;;;;;;;;6.74;58.18;99356.22;4468244;32;34237;-75
2023/12/21 05:31:48;;;;;;;;;;;;;;;6.58;58.43;99359.63;4467722;32;33069;-73
2023/12/21 05:34:15;;;;;;;;;;;;;;;6.67;58.28;99364.41;4454006;32;32385;-76
2023/12/21 05:36:42;;;;;;;;;;;;;;;6.61;58.47;99356.34;4453768;32;33840;-76
2023/12/21 05:39:10;;;;;;;;;;;;;;;6.79;57.47;99354.75;4453816;32;34555;-74
2023/12/21 05:41:44;;;;;;;;;;;;;;;6.54;57.91;99360.28;4467269;32;33325;-72
2023/12/21 05:44:12;;;;;;;;;;;;;;;6.34;58.41;99359.22;4467988;32;34166;-73
2023/12/21 05:46:41;;;;;;;;;;;;;;;5.86;60.36;99363.38;4469282;32;33763;-73
2023/12/21 05:49:09;;;;;;;;;;;;;;;6.33;59.33;99360.00;4470209;32;34207;-74
2023/12/21 05:51:36;;;;;;;;;;;;;;;6.45;58.98;99362.34;4470244;32;32813;-74
2023/12/21 05:54:04;;;;;;;;;;;;;;;6.30;59.42;99357.28;4470220;32;34250;-74
2023/12/21 05:56:31;;;;;;;;;;;;;;;6.24;59.40;99362.09;4455984;32;33603;-74
2023/12/21 05:58:58;;;;;;;;;;;;;;;5.99;60.54;99354.69;4469917;32;33888;-74
2023/12/21 06:01:26;;;;;;;;;;;;;;;6.12;60.43;99356.25;4468967;32;33360;-72
2023/12/21 06:03:55;;;;;;;;;;;;;;;6.41;59.29;99343.31;4451831;32;34253;-71
2023/12/21 06:06:23;;;;;;;;;;;;;;;6.46;59.04;99347.00;4478732;32;34864;-72
2023/12/21 06:08:50;;;;;;;;;;;;;;;6.20;59.55;99349.84;4468613;32;33860;-75
2023/12/21 06:11:17;;;;;;;;;;;;;;;6.33;59.60;99352.28;4471557;32;33044;-75
2023/12/21 06:13:45;;;;;;;;;;;;;;;6.23;59.85;99343.19;4470308;32;34518;-75
2023/12/21 06:16:14;;;;;;;;;;;;;;;5.90;61.06;99342.19;4469313;32;34261;-75
2023/12/21 06:18:41;;;;;;;;;;;;;;;6.07;61.07;99344.03;4467686;32;34787;-74
2023/12/21 06:21:09;;;;;;;;;;;;;;;6.13;60.92;99340.91;4468493;32;34030;-74
2023/12/21 06:23:36;;;;;;;;;;;;;;;6.19;60.44;99332.66;4469812;32;34242;-76
2023/12/21 06:26:03;;;;;;;;;;;;;;;6.30;60.24;99323.84;4470252;32;34747;-74
2023/12/21 06:28:31;;;;;;;;;;;;;;;6.24;60.32;99326.09;4469031;32;33966;-74
2023/12/21 06:30:58;;;;;;;;;;;;;;;6.20;60.44;99331.84;4469320;32;34326;-73
2023/12/21 06:33:26;;;;;;;;;;;;;;;6.43;59.38;99318.56;4464374;32;33924;-74
2023/12/21 06:35:54;;;;;;;;;;;;;;;6.03;60.35;99325.81;4469768;32;33683;-72
2023/12/21 06:38:22;;;;;;;;;;;;;;;6.09;60.52;99321.88;4470065;32;34190;-75
2023/12/21 06:40:50;;;;;;;;;;;;;;;6.02;61.00;99319.75;4469445;32;32948;-74
2023/12/21 06:43:18;;;;;;;;;;;;;;;6.03;61.26;99321.53;4469112;32;34111;-76
2023/12/21 06:45:47;;;;;;;;;;;;;;;5.97;60.96;99326.34;4470048;32;34007;-73
2023/12/21 06:48:15;;;;;;;;;;;;;;;5.54;61.56;99334.16;4468763;32;33621;-72
2023/12/21 06:50:42;;;;;;;;;;;;;;;5.61;61.97;99327.69;4468989;32;33571;-75
2023/12/21 06:53:15;;;;;;;;;;;;;;;5.75;62.35;99333.62;4466511;32;33793;-73
2023/12/21 06:55:42;;;;;;;;;;;;;;;5.67;62.24;99334.06;4453287;32;34189;-75
2023/12/21 06:58:10;;;;;;;;;;;;;;;5.78;62.10;99328.66;4469385;32;33687;-70
2023/12/21 07:00:37;;;;;;;;;;;;;;;5.78;62.19;99323.53;4457602;32;32166;-73
2023/12/21 07:03:05;;;;;;;;;;;;;;;5.79;62.03;99313.31;4455004;32;34204;-74
2023/12/21 07:05:33;;;;;;;;;;;;;;;5.82;62.09;99305.78;4468642;32;34811;-72
2023/12/21 07:08:00;;;;;;;;;;;;;;;5.89;61.93;99304.41;4469297;32;34811;-72
2023/12/21 07:10:27;;;;;;;;;;;;;;;5.63;62.45;99303.84;4467062;32;33964;-73
2023/12/21 07:12:55;;;;;;;;;;;;;;;5.74;62.10;99301.00;4468928;32;34387;-74
2023/12/21 07:15:22;;;;;;;;;;;;;;;5.85;61.83;99305.06;4469388;32;34169;-74
2023/12/21 07:17:49;;;;;;;;;;;;;;;5.94;61.45;99305.56;4469714;32;34044;-72
2023/12/21 07:20:20;;;;;;;;;;;;;;;6.18;59.39;99294.88;4468874;32;33395;-74
2023/12/21 07:22:47;;;;;;;;;;;;;;;5.88;59.70;99289.81;4452717;32;32072;-74
2023/12/21 07:25:16;;;;;;;;;;;;;;;5.74;60.00;99293.28;4466044;32;34880;-73
2023/12/21 07:27:43;;;;;;;;;;;;;;;5.44;61.04;99301.94;4468833;32;34305;-75
2023/12/21 07:30:11;;;;;;;;;;;;;;;5.22;62.08;99294.69;4469318;32;32915;-74
2023/12/21 07:32:39;;;;;;;;;;;;;;;5.22;62.42;99274.16;4455431;32;33409;-74
2023/12/21 07:35:08;;;;;;;;;;;;;;;5.45;62.33;99272.00;4471267;32;33599;-75
2023/12/21 07:37:35;;;;;;;;;;;;;;;5.36;62.86;99286.91;4468889;32;34338;-72
2023/12/21 07:40:03;;;;;;;;;;;;;;;5.43;62.84;99278.75;4469164;32;33121;-73
2023/12/21 07:42:30;;;;;;;;;;;;;;;5.55;62.54;99274.28;4467325;32;34622;-74
2023/12/21 07:44:58;;;;;;;;;;;;;;;5.50;63.16;99276.63;4464848;32;34769;-73
2023/12/21 07:47:25;;;;;;;;;;;;;;;5.70;62.87;99275.16;4469453;32;34208;-73
2023/12/21 07:49:54;;;;;;;;;;;;;;;5.75;62.91;99271.94;4469382;32;33274;-73
2023/12/21 07:52:21;;;;;;;;;;;;;;;5.74;63.05;99273.62;4466634;32;34264;-72
2023/12/21 07:54:49;;;;;;;;;;;;;;;6.02;62.34;99264.88;4443098;32;782534;-74
2023/12/21 07:57:16;;;;;;;;;;;;;;;6.07;62.51;99261.75;4456390;32;34934;-74
2023/12/21 07:59:44;;;;;;;;;;;;;;;6.16;61.99;99263.03;4460218;32;33249;-74
2023/12/21 08:02:11;;;;;;;;;;;;;;;6.20;62.73;99267.53;4468721;32;34953;-74
2023/12/21 08:04:39;;;;;;;;;;;;;;;6.31;64.40;99276.72;4463495;32;34202;-75
2023/12/21 08:07:07;;;;;;;;;;;;;;;6.38;65.13;99273.69;4456166;32;33926;-75
2023/12/21 08:09:34;;;;;;;;;;;;;;;6.48;65.42;99260.47;4455158;32;33434;-74
2023/12/21 08:12:02;;;;;;;;;;;;;;;6.77;64.12;99253.37;4469376;32;34729;-74
2023/12/21 08:14:31;;;;;;;;;;;;;;;6.57;64.64;99259.22;4469530;32;34696;-73
2023/12/21 08:17:01;;;;;;;;;;;;;;;6.60;64.50;99252.50;4469429;32;34294;-72
2023/12/21 08:19:28;;;;;;;;;;;;;;;7.01;63.25;99246.03;4469007;32;33366;-73
2023/12/21 08:21:56;;;;;;;;;;;;;;;7.15;62.42;99241.56;4456150;32;33542;-73
2023/12/21 08:24:23;;;;;;;;;;;;;;;7.12;62.68;99235.38;4469374;32;34284;-75
2023/12/21 08:26:50;;;;;;;;;;;;;;;7.09;62.74;99230.97;4468516;32;34638;-73
2023/12/21 08:29:18;;;;;;;;;;;;;;;7.47;61.47;99224.19;4455061;32;32197;-74
2023/12/21 08:31:45;;;;;;;;;;;;;;;7.39;61.70;99233.25;4454740;32;32519;-74
2023/12/21 08:34:13;;;;;;;;;;;;;;;7.40;61.39;99240.19;4469201;32;34205;-74
2023/12/21 08:36:40;;;;;;;;;;;;;;;7.45;61.42;99239.56;4453938;32;34164;-73
2023/12/21 08:39:08;;;;;;;;;;;;;;;7.74;60.85;99236.63;4458176;32;33044;-73
2023/12/21 08:41:36;;;;;;;;;;;;;;;7.82;60.33;99243.00;4468632;32;34028;-73
2023/12/21 08:44:03;;;;;;;;;;;;;;;7.97;59.91;99248.88;4468444;32;34292;-74
2023/12/21 08:46:30;;;;;;;;;;;;;;;7.94;60.09;99243.59;4468830;32;34863;-73
2023/12/21 08:48:58;;;;;;;;;;;;;;;7.78;60.60;99247.13;4468667;32;33506;-73
2023/12/21 08:51:26;;;;;;;;;;;;;;;7.94;60.08;99253.91;4468529;32;34341;-72
2023/12/21 08:53:53;;;;;;;;;;;;;;;7.98;59.96;99240.34;4471326;32;34240;-73
2023/12/21 08:56:20;;;;;;;;;;;;;;;7.85;60.43;99243.16;4465777;32;34458;-72
2023/12/21 08:58:52;;;;;;;;;;;;;;;8.02;60.09;99234.50;4467853;32;32862;-72
2023/12/21 09:01:19;;;;;;;;;;;;;;;7.97;60.14;99238.56;4466240;32;34623;-73
2023/12/21 09:03:47;;;;;;;;;;;;;;;8.18;59.99;99242.94;4468941;32;34020;-72
2023/12/21 09:06:14;;;;;;;;;;;;;;;7.79;60.61;99237.72;4453040;32;34214;-73
2023/12/21 09:08:42;;;;;;;;;;;;;;;8.13;59.74;99235.00;4468025;32;33540;-73
2023/12/21 09:11:09;;;;;;;;;;;;;;;8.37;59.45;99235.19;4467809;32;33864;-72
2023/12/21 09:13:36;;;;;;;;;;;;;;;8.52;58.78;99234.13;4467634;32;34201;-72
2023/12/21 09:16:04;;;;;;;;;;;;;;;8.61;58.19;99230.25;4454593;32;34696;-72
2023/12/21 09:18:31;;;;;;;;;;;;;;;8.49;58.99;99228.84;4463457;32;33366;-73
2023/12/21 09:20:59;;;;;;;;;;;;;;;8.41;59.06;99226.81;4468891;32;33700;-73
2023/12/21 09:23:26;;;;;;;;;;;;;;;8.46;59.23;99214.13;4469798;32;33672;-73
2023/12/21 09:25:53;;;;;;;;;;;;;;;8.41;59.24;99216.50;4469690;32;34226;-72
2023/12/21 09:28:22;;;;;;;;;;;;;;;8.62;58.70;99205.34;4456036;32;31842;-73
2023/12/21 09:30:49;;;;;;;;;;;;;;;8.38;59.18;99200.84;4470491;32;33865;-74
2023/12/21 09:33:18;;;;;;;;;;;;;;;8.73;58.19;99196.34;4470489;32;34256;-72
2023/12/21 09:35:46;;;;;;;;;;;;;;;8.53;58.99;99192.91;4455821;32;34306;-73
2023/12/21 09:38:13;;;;;;;;;;;;;;;8.31;59.81;99193.66;4468037;32;33255;-72
2023/12/21 09:40:41;;;;;;;;;;;;;;;8.48;59.47;99185.78;4460798;32;34134;-74
2023/12/21 09:43:08;;;;;;;;;;;;;;;8.59;58.70;99189.69;4469621;32;33969;-73
2023/12/21 09:45:42;;;;;;;;;;;;;;;8.64;58.48;99177.87;4455961;32;34470;-72
2023/12/21 09:48:10;;;;;;;;;;;;;;;8.63;58.60;99166.69;4438999;32;31560;-74
2023/12/21 09:50:37;;;;;;;;;;;;;;;8.66;58.99;99148.72;4453981;32;34854;-72
2023/12/21 09:53:05;;;;;;;;;;;;;;;8.84;58.46;99140.84;4456088;32;33868;-74
2023/12/21 09:55:32;;;;;;;;;;;;;;;8.79;58.51;99131.19;4469394;32;34274;-73
2023/12/21 09:57:59;;;;;;;;;;;;;;;8.91;58.13;99133.38;4470272;32;33151;-72
2023/12/21 10:00:29;;;;;;;;;;;;;;;8.87;58.10;99134.06;4455303;32;34289;-73
2023/12/21 10:02:57;;;;;;;;;;;;;;;8.91;58.23;99147.16;4443586;32;31740;-73
2023/12/21 10:05:25;;;;;;;;;;;;;;;9.02;57.64;99145.00;4455678;32;35396;-74
2023/12/21 10:07:52;;;;;;;;;;;;;;;9.18;57.49;99147.37;4469385;32;33330;-74
2023/12/21 10:10:20;;;;;;;;;;;;;;;9.04;58.07;99140.81;4450279;32;33545;-74
2023/12/21 10:12:47;;;;;;;;;;;;;;;9.30;57.41;99135.78;4452528;32;34810;-73
2023/12/21 10:15:16;;;;;;;;;;;;;;;9.08;57.74;99119.44;4469991;32;34253;-74
2023/12/21 10:17:45;;;;;;;;;;;;;;;9.24;57.42;99108.84;4470003;32;34374;-73
2023/12/21 10:20:12;;;;;;;;;;;;;;;9.16;57.67;99111.97;4469965;32;34935;-73
2023/12/21 10:22:41;;;;;;;;;;;;;;;9.31;57.10;99101.34;4465403;32;34726;-74
2023/12/21 10:25:12;;;;;;;;;;;;;;;9.40;57.19;99093.94;4470209;32;34261;-74
2023/12/21 10:27:40;;;;;;;;;;;;;;;9.44;57.01;99088.97;4469648;32;33130;-72
2023/12/21 10:30:08;;;;;;;;;;;;;;;9.46;56.95;99086.41;4463530;32;33649;-72
2023/12/21 10:32:35;;;;;;;;;;;;;;;9.59;56.79;99078.28;4472187;32;34124;-73
2023/12/21 10:35:04;;;;;;;;;;;;;;;9.34;57.53;99070.44;4463940;32;34491;-73
2023/12/21 10:37:32;;;;;;;;;;;;;;;9.39;57.11;99061.19;4469474;32;31783;-72
2023/12/21 10:40:00;;;;;;;;;;;;;;;9.67;56.70;99054.44;4452762;32;34230;-74
2023/12/21 10:42:28;;;;;;;;;;;;;;;9.63;56.80;99037.91;4455038;32;34327;-73
2023/12/21 10:44:56;;;;;;;;;;;;;;;9.72;56.89;99032.22;4468202;32;34151;-74
2023/12/21 10:47:23;;;;;;;;;;;;;;;9.60;56.75;99019.69;4469664;32;34127;-74
2023/12/21 10:49:53;;;;;;;;;;;;;;;9.64;56.39;99019.88;4455161;32;33239;-74
2023/12/21 10:52:20;;;;;;;;;;;;;;;9.89;56.80;99005.22;4436809;32;33334;-73
2023/12/21 10:54:48;;;;;;;;;;;;;;;9.93;56.37;98993.25;4454894;32;34179;-74
2023/12/21 10:57:16;;;;;;;;;;;;;;;9.82;56.68;98990.31;4455905;32;34120;-73
2023/12/21 10:59:43;;;;;;;;;;;;;;;10.02;56.20;98963.44;4454562;32;34176;-72
2023/12/21 11:02:12;;;;;;;;;;;;;;;10.00;56.41;98966.78;4469069;32;33722;-72
2023/12/21 11:04:39;;;;;;;;;;;;;;;9.98;57.05;98947.72;4469802;32;35012;-72
2023/12/21 11:07:08;;;;;;;;;;;;;;;9.99;56.64;98947.78;4468924;32;33936;-73
2023/12/21 11:09:36;;;;;;;;;;;;;;;9.99;56.73;98944.34;4455505;32;35114;-73
2023/12/21 11:12:04;;;;;;;;;;;;;;;9.87;56.59;98937.03;4449689;32;34278;-74
2023/12/21 11:14:32;;;;;;;;;;;;;;;9.94;56.69;98931.22;4469001;32;34826;-73
2023/12/21 11:17:00;;;;;;;;;;;;;;;9.93;61.37;98928.59;4469325;32;34040;-73
2023/12/21 11:19:29;;;;;;;;;;;;;;;10.02;56.89;98932.38;4455151;32;34869;-73
2023/12/21 11:21:56;;;;;;;;;;;;;;;9.99;56.51;98911.56;4456169;32;33833;-72
2023/12/21 11:24:24;;;;;;;;;;;;;;;10.04;56.15;98907.44;4469158;32;34823;-73
2023/12/21 11:26:52;;;;;;;;;;;;;;;10.11;56.12;98907.62;4469510;32;33192;-73
2023/12/21 11:29:27;;;;;;;;;;;;;;;10.22;55.49;98901.09;4454690;32;34732;-73
2023/12/21 11:31:55;;;;;;;;;;;;;;;10.19;55.25;98900.97;4455090;32;34929;-73
2023/12/21 11:34:24;;;;;;;;;;;;;;;10.16;55.53;98896.59;4469298;32;33940;-72
2023/12/21 11:36:58;;;;;;;;;;;;;;;10.36;55.27;98883.44;4468863;32;34134;-73
2023/12/21 11:39:25;;;;;;;;;;;;;;;10.40;54.97;98880.97;4450651;32;34601;-72
2023/12/21 11:41:57;;;;;;;;;;;;;;;10.10;54.28;98874.81;4455201;32;33606;-73
2023/12/21 11:44:37;;;;;;;;;;;;;;;10.06;54.46;98870.38;4461534;32;33568;-73
2023/12/21 11:47:07;;;;;;;;;;;;;;;10.34;54.46;98860.09;4469582;32;32231;-73
2023/12/21 11:49:37;;;;;;;;;;;;;;;10.27;54.15;98863.28;4468961;32;34325;-73
2023/12/21 11:52:04;;;;;;;;;;;;;;;10.45;54.05;98856.94;4446198;32;33617;-73
2023/12/21 11:54:32;;;;;;;;;;;;;;;10.24;54.07;98843.34;4455160;32;34697;-73
2023/12/21 11:57:09;;;;;;;;;;;;;;;10.41;54.13;98836.13;4468964;32;34718;-73
2023/12/21 11:59:36;;;;;;;;;;;;;;;10.43;54.63;98831.00;4451138;32;34965;-73
2023/12/21 12:02:05;;;;;;;;;;;;;;;10.51;54.74;98821.75;4468875;32;34220;-73
2023/12/21 12:04:33;;;;;;;;;;;;;;;10.43;55.12;98824.12;4468137;32;34032;-73
2023/12/21 12:07:01;;;;;;;;;;;;;;;10.20;55.61;98825.13;4468270;32;33948;-73
2023/12/21 12:09:29;;;;;;;;;;;;;;;10.26;55.96;98822.69;4454913;32;34068;-72
2023/12/21 12:11:56;;;;;;;;;;;;;;;9.95;56.90;98820.88;4467574;32;34097;-73
2023/12/21 12:14:23;;;;;;;;;;;;;;;9.78;57.44;98820.34;4467259;32;34890;-73
2023/12/21 12:16:50;;;;;;;;;;;;;;;9.76;57.56;98806.50;4466852;32;33551;-72
2023/12/21 12:19:18;;;;;;;;;;;;;;;9.90;57.19;98787.09;4468772;32;34307;-73
2023/12/21 12:21:46;;;;;;;;;;;;;;;9.39;57.87;98794.94;4468225;32;33899;-74
2023/12/21 12:24:14;;;;;;;;;;;;;;;9.58;57.78;98792.13;4469138;32;33958;-73
2023/12/21 12:26:42;;;;;;;;;;;;;;;9.32;59.12;98780.06;4468243;32;33533;-72
2023/12/21 12:29:13;;;;;;;;;;;;;;;9.34;59.49;98768.06;4468808;32;34593;-73
2023/12/21 12:31:40;;;;;;;;;;;;;;;9.05;60.15;98773.13;4469520;32;34190;-73
2023/12/21 12:34:08;;;;;;;;;;;;;;;9.31;60.26;98760.19;4454892;32;34341;-72
2023/12/21 12:36:35;;;;;;;;;;;;;;;9.53;59.63;98762.66;4469111;32;33941;-73
2023/12/21 12:39:03;;;;;;;;;;;;;;;9.56;61.18;98747.25;4468866;32;34140;-71
2023/12/21 12:41:30;;;;;;;;;;;;;;;9.59;59.01;98747.34;4468943;32;34288;-71
2023/12/21 12:43:58;;;;;;;;;;;;;;;9.46;58.62;98737.44;4468486;32;33901;-74
2023/12/21 12:46:26;;;;;;;;;;;;;;;9.65;58.52;98737.19;4468387;32;33324;-73
2023/12/21 12:48:54;;;;;;;;;;;;;;;9.55;57.85;98724.81;4468356;32;34388;-73
2023/12/21 12:51:22;;;;;;;;;;;;;;;9.51;57.86;98706.59;4469127;32;34216;-72
2023/12/21 12:53:51;;;;;;;;;;;;;;;9.68;57.68;98694.16;4466989;32;34238;-73
2023/12/21 12:56:19;;;;;;;;;;;;;;;9.21;58.06;98682.41;4465945;32;33215;-73
2023/12/21 12:58:46;;;;;;;;;;;;;;;9.23;58.62;98685.00;4467786;32;34360;-72